Time;durP1;ratioP1;P1;durP2;ratioP2;P2;SDS_P1;SDS_P2;PMS_P1;PMS_P2;Temp;Humidity;BMP_temperature;BMP_pressure;BME280_temperature;BME280_humidity;BME280_pressure;Samples;Min_cycle;Max_cycle;Signal;HPM_P1;HPM_P2
2023/03/25 00:02:04;;;;;;;45.17;26.37;;;;;;;6.96;100.00;99975.32;1769549;81;21728;-83
2023/03/25 00:05:09;;;;;;;51.48;29.92;;;;;;;6.89;100.00;99981.08;1770784;81;21183;-83
2023/03/25 00:08:16;;;;;;;63.30;30.80;;;;;;;6.88;100.00;99981.59;1769838;81;21178;-83
2023/03/25 00:11:23;;;;;;;55.98;31.65;;;;;;;6.95;100.00;99982.30;1770530;81;21230;-82
2023/03/25 00:14:31;;;;;;;63.73;31.90;;;;;;;6.93;100.00;99983.83;1770909;81;21179;-83
2023/03/25 00:17:38;;;;;;;61.05;32.88;;;;;;;6.88;100.00;99976.15;1770330;81;21206;-82
2023/03/25 00:20:44;;;;;;;48.78;28.17;;;;;;;6.90;100.00;99972.75;1770801;81;21187;-82
2023/03/25 00:23:51;;;;;;;57.83;29.52;;;;;;;6.93;100.00;99970.23;1771098;81;21182;-82
2023/03/25 00:26:58;;;;;;;50.70;28.73;;;;;;;6.96;100.00;99971.24;1772653;80;21765;-82
2023/03/25 00:30:05;;;;;;;55.88;30.72;;;;;;;7.04;100.00;99967.73;1775072;81;21749;-81
2023/03/25 00:33:13;;;;;;;45.80;29.45;;;;;;;7.03;100.00;99961.95;1776504;81;22319;-82
2023/03/25 00:36:19;;;;;;;68.25;31.02;;;;;;;6.91;100.00;99962.72;1775059;81;21269;-82
2023/03/25 00:39:26;;;;;;;48.90;28.25;;;;;;;6.80;100.00;99965.22;1776859;81;21554;-82
2023/03/25 00:42:33;;;;;;;49.05;27.42;;;;;;;6.75;100.00;99966.20;1775406;81;21213;-82
2023/03/25 00:45:40;;;;;;;45.55;28.77;;;;;;;6.73;100.00;99959.20;1776639;81;21190;-82
2023/03/25 00:48:46;;;;;;;53.38;29.67;;;;;;;6.68;100.00;99950.20;1775169;81;21193;-82
2023/03/25 00:51:51;;;;;;;44.23;27.37;;;;;;;6.71;100.00;99953.09;1776667;81;21725;-82
2023/03/25 00:54:57;;;;;;;47.20;28.95;;;;;;;6.70;100.00;99954.96;1776621;81;21185;-82
2023/03/25 00:58:04;;;;;;;46.95;28.27;;;;;;;6.75;100.00;99964.84;1776227;81;21300;-82
2023/03/25 01:01:22;;;;;;;45.00;27.00;;;;;;;6.67;100.00;99968.86;1776790;81;21234;-82
2023/03/25 01:04:28;;;;;;;49.70;29.72;;;;;;;6.55;100.00;99966.92;1776640;81;21229;-82
2023/03/25 01:07:35;;;;;;;46.85;28.05;;;;;;;6.48;100.00;99966.34;1775233;81;21190;-82
2023/03/25 01:10:45;;;;;;;52.03;29.40;;;;;;;6.42;100.00;99965.63;1776714;81;21166;-84
2023/03/25 01:13:50;;;;;;;48.80;28.60;;;;;;;6.39;100.00;99958.64;1776878;81;21186;-84
2023/03/25 01:21:06;;;;;;;42.98;27.22;;;;;;;6.33;100.00;99959.28;1776992;80;21138;-84
2023/03/25 01:24:12;;;;;;;51.85;29.10;;;;;;;6.28;100.00;99951.59;1776949;81;21229;-84
2023/03/25 01:27:17;;;;;;;51.25;29.57;;;;;;;6.29;100.00;99950.58;1774566;80;21218;-84
2023/03/25 01:30:24;;;;;;;40.10;24.92;;;;;;;6.29;100.00;99949.73;1769992;81;21352;-84
2023/03/25 01:33:31;;;;;;;56.20;30.40;;;;;;;6.27;100.00;99944.47;1771141;81;21194;-84
2023/03/25 01:36:38;;;;;;;45.85;28.65;;;;;;;6.19;100.00;99944.39;1769623;81;21181;-84
2023/03/25 01:39:46;;;;;;;54.63;30.77;;;;;;;6.09;100.00;99946.34;1769815;81;21262;-84
2023/03/25 01:42:52;;;;;;;41.35;27.15;;;;;;;6.12;100.00;99948.77;1770737;81;21218;-84
2023/03/25 01:45:58;;;;;;;47.05;27.30;;;;;;;6.14;100.00;99954.87;1769726;81;21183;-84
2023/03/25 01:49:04;;;;;;;41.92;26.02;;;;;;;6.12;100.00;99939.25;1770490;81;21179;-81
2023/03/25 01:52:15;;;;;;;43.73;27.65;;;;;;;6.20;100.00;99940.66;1771020;81;21724;-82
2023/03/25 01:55:22;;;;;;;39.33;25.48;;;;;;;6.19;100.00;99941.67;1770989;81;21709;-82
2023/03/25 01:58:29;;;;;;;32.98;22.17;;;;;;;6.17;100.00;99946.42;1769528;81;21257;-82
2023/03/25 02:01:35;;;;;;;33.18;20.50;;;;;;;6.21;100.00;99941.51;1771089;81;21194;-82
2023/03/25 02:05:09;;;;;;;30.35;20.20;;;;;;;6.02;100.00;99944.77;1769744;81;21190;-82
2023/03/25 02:08:14;;;;;;;26.80;20.27;;;;;;;5.86;100.00;99945.42;1769612;81;21254;-82
2023/03/25 02:11:20;;;;;;;37.15;24.52;;;;;;;5.69;100.00;99943.55;1770967;81;21174;-81
2023/03/25 02:14:30;;;;;;;44.63;28.67;;;;;;;5.55;100.00;99946.31;1770961;81;21187;-81
2023/03/25 02:18:03;;;;;;;70.50;28.65;;;;;;;5.60;100.00;99943.98;1771066;81;21182;-82
2023/03/25 02:21:22;;;;;;;31.62;24.20;;;;;;;5.69;100.00;99947.61;1770921;81;21198;-82
2023/03/25 02:25:10;;;;;;;28.77;22.58;;;;;;;5.69;100.00;99946.25;1726965;81;21309;-83
2023/03/25 02:28:57;;;;;;;31.50;22.45;;;;;;;5.69;100.00;99940.83;1766637;80;21269;-82
2023/03/25 02:32:21;;;;;;;42.60;20.80;;;;;;;5.72;100.00;99936.97;1762343;81;21240;-81
2023/03/25 02:35:51;;;;;;;27.85;19.17;;;;;;;5.76;100.00;99929.72;1762602;81;21173;-82
2023/03/25 02:39:02;;;;;;;24.50;19.45;;;;;;;5.76;100.00;99928.36;1762317;81;21264;-82
2023/03/25 02:42:14;;;;;;;39.13;20.20;;;;;;;5.81;100.00;99929.26;1789799;80;21181;-82
2023/03/25 02:45:40;;;;;;;24.77;17.87;;;;;;;5.83;100.00;99927.23;1715327;83;22019;-82
2023/03/25 02:49:18;;;;;;;21.40;16.57;;;;;;;5.89;100.00;99923.41;1744336;82;21177;-81
2023/03/25 02:52:37;;;;;;;24.43;19.25;;;;;;;6.06;100.00;99922.21;1715021;83;21241;-82
2023/03/25 02:55:36;;;;;;;38.17;19.67;;;;;;;5.99;100.00;99919.80;1744927;82;21188;-81
2023/03/25 02:58:42;;;;;;;35.88;20.30;;;;;;;5.93;100.00;99927.17;1743573;82;21204;-82
2023/03/25 03:01:50;;;;;;;32.70;21.85;;;;;;;5.91;100.00;99927.31;1713823;83;21831;-81
2023/03/25 03:07:35;;;;;;;23.47;18.62;;;;;;;6.03;100.00;99922.55;1856896;76;28048;-83
2023/03/25 03:11:19;;;;;;;29.27;20.32;;;;;;;6.02;100.00;99935.27;1817207;79;21189;-82
2023/03/25 03:15:10;;;;;;;23.30;18.67;;;;;;;6.18;100.00;99935.91;1815628;79;21184;-83
2023/03/25 03:18:50;;;;;;;27.90;18.50;;;;;;;6.03;100.00;99941.55;1817086;79;21165;-83
2023/03/25 03:22:33;;;;;;;27.13;17.92;;;;;;;6.10;100.00;99950.77;1804366;78;21248;-83
2023/03/25 03:25:54;;;;;;;25.48;17.77;;;;;;;6.14;100.00;99942.14;1816885;79;21264;-82
2023/03/25 03:29:08;;;;;;;21.02;16.17;;;;;;;6.26;100.00;99941.41;1808698;79;21208;-82
2023/03/25 03:32:42;;;;;;;22.82;16.75;;;;;;;6.32;100.00;99938.56;1783512;80;21161;-82
2023/03/25 03:36:07;;;;;;;39.48;19.37;;;;;;;6.31;100.00;99939.07;1784598;80;21212;-82
2023/03/25 03:39:18;;;;;;;26.42;17.55;;;;;;;6.26;100.00;99940.05;1772002;80;21173;-82
2023/03/25 03:43:03;;;;;;;21.02;15.68;;;;;;;6.24;100.00;99939.34;1783480;80;21184;-82
2023/03/25 03:46:10;;;;;;;19.73;16.15;;;;;;;6.33;100.00;99941.62;1783554;80;21197;-82
2023/03/25 03:49:22;;;;;;;26.20;16.60;;;;;;;6.31;100.00;99943.66;1783688;79;21231;-82
2023/03/25 03:52:36;;;;;;;25.88;15.93;;;;;;;6.39;100.00;99941.83;1783722;80;21212;-83
2023/03/25 03:55:49;;;;;;;30.68;15.93;;;;;;;6.48;100.00;99939.17;1782590;80;21482;-82
2023/03/25 03:58:59;;;;;;;21.52;14.58;;;;;;;6.60;100.00;99935.20;1783695;80;21251;-82
2023/03/25 04:02:07;;;;;;;25.02;15.98;;;;;;;6.64;100.00;99944.23;1785207;80;21184;-82
2023/03/25 04:05:18;;;;;;;23.92;15.08;;;;;;;6.59;100.00;99934.86;1785085;80;21799;-82
2023/03/25 04:08:41;;;;;;;35.55;16.95;;;;;;;6.56;100.00;99938.73;1778705;80;21189;-82
2023/03/25 04:11:50;;;;;;;23.12;15.40;;;;;;;6.54;100.00;99931.27;1779724;80;21983;-82
2023/03/25 04:14:58;;;;;;;30.62;16.10;;;;;;;6.58;100.00;99937.20;1779817;80;21220;-82
2023/03/25 04:18:05;;;;;;;20.85;14.60;;;;;;;6.76;100.00;99939.87;1763131;80;21180;-82
2023/03/25 04:21:14;;;;;;;19.95;14.13;;;;;;;6.82;100.00;99944.66;1777704;80;21185;-82
2023/03/25 04:24:21;;;;;;;22.25;15.78;;;;;;;6.80;100.00;99939.91;1779197;80;21292;-81
2023/03/25 04:27:31;;;;;;;22.35;14.07;;;;;;;6.87;100.00;99935.54;1777717;80;21272;-82
2023/03/25 04:30:37;;;;;;;18.15;14.55;;;;;;;6.93;100.00;99929.95;1777834;79;21216;-81
2023/03/25 04:33:45;;;;;;;19.67;15.15;;;;;;;6.95;100.00;99933.34;1779114;80;21172;-81
2023/03/25 04:36:50;;;;;;;19.75;15.15;;;;;;;6.98;100.00;99937.96;1778725;80;21208;-82
2023/03/25 04:39:58;;;;;;;18.35;15.13;;;;;;;6.89;100.00;99938.94;1779117;80;21177;-82
2023/03/25 04:43:04;;;;;;;16.42;13.58;;;;;;;6.91;100.00;99939.61;1779162;80;21165;-82
2023/03/25 04:46:10;;;;;;;16.67;13.13;;;;;;;6.99;100.00;99936.94;1779230;80;21616;-82
2023/03/25 04:49:21;;;;;;;14.15;12.13;;;;;;;7.03;100.00;99934.76;1777719;80;21180;-82
2023/03/25 04:52:28;;;;;;;21.23;11.53;;;;;;;7.10;100.00;99935.28;1764135;80;21244;-82
2023/03/25 04:55:35;;;;;;;14.63;11.22;;;;;;;7.07;100.00;99930.70;1779118;80;21581;-82
2023/03/25 04:58:41;;;;;;;14.60;12.13;;;;;;;7.13;100.00;99928.17;1779042;80;21213;-82
2023/03/25 05:01:45;;;;;;;13.10;10.95;;;;;;;7.26;100.00;99934.52;1779349;80;21181;-82
2023/03/25 05:04:52;;;;;;;14.73;11.48;;;;;;;7.24;100.00;99936.53;1779183;80;21173;-81
2023/03/25 05:08:00;;;;;;;14.78;12.07;;;;;;;7.36;100.00;99928.43;1775364;80;21348;-82
2023/03/25 05:11:06;;;;;;;14.38;11.33;;;;;;;7.40;100.00;99927.60;1771138;81;21299;-82
2023/03/25 05:14:20;;;;;;;15.00;11.18;;;;;;;7.30;100.00;99925.53;1770983;81;21189;-82
2023/03/25 05:17:26;;;;;;;14.25;10.58;;;;;;;7.58;100.00;99941.95;1770478;81;21233;-82
2023/03/25 05:20:33;;;;;;;11.70;9.43;;;;;;;7.70;100.00;99938.39;1769474;80;21229;-82
2023/03/25 05:23:42;;;;;;;12.95;10.35;;;;;;;7.56;100.00;99943.11;1769468;81;21760;-83
2023/03/25 05:26:48;;;;;;;13.05;10.90;;;;;;;7.71;100.00;99941.44;1771073;81;21186;-83
2023/03/25 05:29:57;;;;;;;15.45;10.35;;;;;;;7.84;100.00;99945.05;1770068;79;21252;-83
2023/03/25 05:33:02;;;;;;;14.45;9.28;;;;;;;7.73;100.00;99942.66;1770999;81;21166;-83
2023/03/25 05:36:08;;;;;;;12.23;9.48;;;;;;;7.85;100.00;99948.95;1771075;81;21181;-83
2023/03/25 05:39:13;;;;;;;13.48;10.70;;;;;;;8.09;100.00;99946.80;1769894;81;21779;-81
2023/03/25 05:42:23;;;;;;;14.03;11.08;;;;;;;8.29;100.00;99935.05;1766011;81;21224;-81
2023/03/25 05:45:27;;;;;;;16.77;11.55;;;;;;;8.35;100.00;99938.45;1729565;82;21266;-81
2023/03/25 05:48:34;;;;;;;18.87;11.75;;;;;;;8.33;100.00;99937.78;1767003;81;21221;-81
2023/03/25 05:51:41;;;;;;;14.43;11.63;;;;;;;8.46;100.00;99941.36;1766887;81;21766;-82
2023/03/25 05:54:50;;;;;;;16.23;11.80;;;;;;;8.57;100.00;99937.45;1731634;83;21769;-82
2023/03/25 05:57:55;;;;;;;20.17;12.73;;;;;;;8.78;100.00;99943.19;1768869;81;21174;-82
2023/03/25 06:01:04;;;;;;;17.80;11.95;;;;;;;8.80;100.00;99936.19;1769552;81;21221;-82
2023/03/25 06:04:12;;;;;;;14.30;11.30;;;;;;;8.67;100.00;99935.39;1769134;81;21235;-82
2023/03/25 06:07:21;;;;;;;13.80;11.08;;;;;;;8.70;100.00;99947.28;1769427;81;21177;-82
2023/03/25 06:10:26;;;;;;;16.62;11.95;;;;;;;8.72;100.00;99939.80;1768251;81;21230;-82
2023/03/25 06:13:36;;;;;;;12.98;11.25;;;;;;;8.87;100.00;99935.33;1770889;81;21720;-82
2023/03/25 06:16:42;;;;;;;14.45;11.45;;;;;;;8.93;100.00;99940.59;1769378;81;22343;-82
2023/03/25 06:19:48;;;;;;;17.65;12.03;;;;;;;9.08;100.00;99940.72;1769645;81;21757;-82
2023/03/25 06:22:55;;;;;;;14.15;10.60;;;;;;;9.10;100.00;99931.86;1769478;80;21806;-82
2023/03/25 06:26:01;;;;;;;16.23;11.88;;;;;;;8.63;100.00;99932.66;1770913;81;21832;-83
2023/03/25 06:29:07;;;;;;;16.27;11.35;;;;;;;8.61;100.00;99929.23;1769987;79;21236;-82
2023/03/25 06:32:15;;;;;;;16.15;11.05;;;;;;;8.69;100.00;99925.14;1769416;81;21182;-81
2023/03/25 06:35:20;;;;;;;15.08;11.35;;;;;;;8.73;100.00;99927.02;1770689;81;21241;-81
2023/03/25 06:38:25;;;;;;;15.88;11.60;;;;;;;8.79;100.00;99924.44;1770614;81;21177;-81
2023/03/25 06:41:34;;;;;;;16.80;11.20;;;;;;;8.98;100.00;99927.80;1769467;80;21185;-82
2023/03/25 06:44:43;;;;;;;14.37;11.17;;;;;;;9.13;100.00;99924.18;1769705;81;21725;-82
2023/03/25 06:48:01;;;;;;;16.27;10.55;;;;;;;9.17;100.00;99926.90;1770970;81;21763;-82
2023/03/25 06:51:06;;;;;;;14.38;10.40;;;;;;;9.35;100.00;99920.32;1770945;81;21487;-82
2023/03/25 06:54:14;;;;;;;14.43;10.75;;;;;;;9.47;100.00;99927.94;1769571;80;21181;-82
2023/03/25 06:57:19;;;;;;;15.28;10.03;;;;;;;9.66;100.00;99925.80;1770901;81;21170;-82
2023/03/25 07:00:27;;;;;;;11.05;9.45;;;;;;;9.67;100.00;99922.03;1769536;81;21244;-82
2023/03/25 07:03:35;;;;;;;18.05;10.35;;;;;;;9.63;100.00;99928.36;1771077;81;21291;-82
2023/03/25 07:06:41;;;;;;;16.37;11.05;;;;;;;9.46;100.00;99930.86;1769630;80;21233;-82
2023/03/25 07:09:48;;;;;;;18.75;10.88;;;;;;;9.45;100.00;99934.08;1769527;81;21185;-82
2023/03/25 07:12:53;;;;;;;13.00;10.38;;;;;;;9.48;100.00;99939.19;1769470;81;21174;-82
2023/03/25 07:16:04;;;;;;;10.90;8.85;;;;;;;9.53;100.00;99941.91;1770912;81;21186;-81
2023/03/25 07:19:12;;;;;;;14.70;10.53;;;;;;;9.64;100.00;99938.77;1762870;81;21181;-81
2023/03/25 07:22:17;;;;;;;14.43;9.78;;;;;;;9.69;100.00;99939.07;1770900;81;21189;-81
2023/03/25 07:25:23;;;;;;;13.65;10.58;;;;;;;9.60;100.00;99944.27;1770143;81;21217;-82
2023/03/25 07:28:28;;;;;;;11.90;9.95;;;;;;;9.68;100.00;99936.02;1769407;79;21181;-82
2023/03/25 07:31:34;;;;;;;13.65;10.13;;;;;;;9.71;100.00;99942.48;1769437;81;21182;-82
2023/03/25 07:34:40;;;;;;;15.32;10.60;;;;;;;9.65;100.00;99935.03;1770881;81;21177;-82
2023/03/25 07:37:47;;;;;;;15.18;10.98;;;;;;;9.56;100.00;99933.37;1770875;81;21233;-82
2023/03/25 07:40:54;;;;;;;12.75;8.80;;;;;;;9.67;100.00;99939.78;1769429;81;21775;-81
2023/03/25 07:44:00;;;;;;;16.67;10.25;;;;;;;9.77;100.00;99932.20;1770871;81;21210;-82
2023/03/25 07:47:06;;;;;;;20.95;10.20;;;;;;;9.75;100.00;99935.64;1770850;81;21181;-82
2023/03/25 07:50:16;;;;;;;13.80;10.20;;;;;;;9.73;100.00;99930.86;1769377;81;21779;-82
2023/03/25 07:53:23;;;;;;;14.93;10.30;;;;;;;9.73;100.00;99926.77;1770990;81;21498;-83
2023/03/25 07:56:29;;;;;;;19.77;11.43;;;;;;;9.78;100.00;99931.69;1769893;81;21268;-83
2023/03/25 07:59:34;;;;;;;12.90;9.95;;;;;;;9.56;100.00;99932.00;1769657;81;21177;-83
2023/03/25 08:02:41;;;;;;;13.08;9.75;;;;;;;9.52;100.00;99930.66;1770958;81;21174;-83
2023/03/25 08:05:54;;;;;;;14.00;9.60;;;;;;;9.37;100.00;99926.47;1769702;80;21228;-83
2023/03/25 08:08:59;;;;;;;12.73;9.45;;;;;;;9.40;100.00;99933.77;1769624;81;21736;-83
2023/03/25 08:12:05;;;;;;;19.15;10.18;;;;;;;9.45;100.00;99923.16;1769744;81;21315;-83
2023/03/25 08:15:11;;;;;;;18.48;10.90;;;;;;;9.51;100.00;99921.62;1771384;81;21174;-82
2023/03/25 08:18:17;;;;;;;18.27;10.40;;;;;;;9.55;100.00;99920.72;1771427;81;21170;-82
2023/03/25 08:21:26;;;;;;;17.35;10.38;;;;;;;9.59;100.00;99924.80;1770309;81;21225;-82
2023/03/25 08:24:34;;;;;;;14.78;9.08;;;;;;;9.69;100.00;99920.83;1771523;81;21756;-82
2023/03/25 08:27:40;;;;;;;15.03;11.57;;;;;;;9.78;100.00;99923.48;1770085;81;21188;-82
2023/03/25 08:30:48;;;;;;;14.90;10.25;;;;;;;9.88;100.00;99914.05;1769938;79;21256;-82
2023/03/25 08:33:55;;;;;;;14.33;10.45;;;;;;;10.05;100.00;99915.28;1769975;80;21788;-82
2023/03/25 08:37:01;;;;;;;14.10;9.50;;;;;;;10.08;100.00;99913.56;1771416;81;21197;-83
2023/03/25 08:40:10;;;;;;;12.07;9.95;;;;;;;10.19;100.00;99903.55;1771162;81;21185;-82
2023/03/25 08:43:17;;;;;;;22.73;9.78;;;;;;;10.25;99.54;99905.57;1769910;81;21202;-82
2023/03/25 08:46:23;;;;;;;12.25;10.35;;;;;;;10.44;98.25;99899.62;1771333;81;21169;-82
2023/03/25 08:49:28;;;;;;;13.93;9.68;;;;;;;10.31;98.33;99906.23;1769666;81;21198;-82
2023/03/25 08:52:35;;;;;;;16.50;10.68;;;;;;;10.17;97.79;99900.16;1769670;81;21736;-82
2023/03/25 08:55:41;;;;;;;17.27;9.70;;;;;;;10.06;97.01;99900.58;1770956;81;21225;-82
2023/03/25 08:58:47;;;;;;;14.30;11.00;;;;;;;10.01;97.25;99907.95;1771013;81;21779;-82
2023/03/25 09:01:54;;;;;;;15.25;10.60;;;;;;;9.99;97.06;99906.78;1732026;82;21216;-83
2023/03/25 09:05:01;;;;;;;13.53;10.08;;;;;;;10.02;97.91;99904.22;1731737;82;21729;-82
2023/03/25 09:08:06;;;;;;;14.35;11.22;;;;;;;10.21;97.99;99898.25;1731597;82;21189;-82
2023/03/25 09:11:11;;;;;;;13.88;9.88;;;;;;;10.46;97.31;99901.63;1731497;82;21205;-82
2023/03/25 09:14:18;;;;;;;19.90;10.65;;;;;;;10.59;96.86;99898.80;1710735;82;21798;-82
2023/03/25 09:17:17;;;;;;;13.83;9.98;;;;;;;10.78;95.36;99898.24;1724483;83;21774;-82
2023/03/25 09:20:23;;;;;;;13.08;10.03;;;;;;;10.90;94.48;99905.45;1733853;82;21202;-82
2023/03/25 09:23:29;;;;;;;12.50;9.70;;;;;;;10.90;94.79;99898.09;1733891;83;21186;-83
2023/03/25 09:26:34;;;;;;;20.08;11.12;;;;;;;10.96;93.83;99904.69;1733654;83;21229;-82
2023/03/25 09:29:40;;;;;;;12.80;9.53;;;;;;;10.98;93.10;99900.73;1733291;83;21256;-83
2023/03/25 09:32:47;;;;;;;27.15;11.43;;;;;;;11.11;93.18;99895.13;1733916;83;21221;-82
2023/03/25 09:35:55;;;;;;;17.67;9.93;;;;;;;11.24;93.02;99893.91;1733824;83;21194;-82
2023/03/25 09:39:01;;;;;;;15.85;9.88;;;;;;;11.39;91.54;99897.50;1732465;83;21201;-81
2023/03/25 09:42:41;;;;;;;20.92;10.40;;;;;;;11.40;90.39;99896.45;1732595;83;21236;-82
2023/03/25 09:45:52;;;;;;;17.27;9.55;;;;;;;11.44;89.80;99885.45;1732541;83;21189;-82
2023/03/25 09:48:58;;;;;;;20.02;10.23;;;;;;;11.26;91.08;99883.64;1733745;82;21237;-82
2023/03/25 09:52:04;;;;;;;14.15;9.20;;;;;;;11.29;90.23;99879.13;1732380;83;21772;-81
2023/03/25 09:55:16;;;;;;;16.05;9.90;;;;;;;11.30;90.28;99884.11;1733824;83;21240;-82
2023/03/25 09:58:47;;;;;;;16.85;9.60;;;;;;;11.21;91.74;99879.26;1732475;82;21201;-82
2023/03/25 10:02:03;;;;;;;19.62;10.78;;;;;;;11.27;90.92;99874.38;1704552;83;21198;-83
2023/03/25 10:05:59;;;;;;;13.28;8.78;;;;;;;11.36;90.94;99875.97;1733797;83;21198;-82
2023/03/25 10:09:24;;;;;;;12.25;8.40;;;;;;;11.26;91.29;99877.64;1733890;83;21189;-82
2023/03/25 10:12:50;;;;;;;13.20;7.92;;;;;;;11.43;92.24;99873.30;1731889;83;21213;-82
2023/03/25 10:16:35;;;;;;;13.55;8.38;;;;;;;11.66;92.01;99874.52;1736133;82;21189;-82
2023/03/25 10:20:11;;;;;;;14.15;8.93;;;;;;;11.89;90.93;99875.22;1735875;82;21756;-82
2023/03/25 10:23:28;;;;;;;17.37;9.30;;;;;;;12.15;88.47;99871.05;1734819;82;21804;-82
2023/03/25 10:26:46;;;;;;;18.75;10.43;;;;;;;12.03;88.83;99871.56;1735875;82;21197;-81
2023/03/25 10:30:04;;;;;;;16.62;9.20;;;;;;;12.20;87.96;99865.81;1734533;82;21276;-82
2023/03/25 10:33:19;;;;;;;12.30;9.13;;;;;;;12.48;87.65;99855.70;1734995;82;21201;-81
2023/03/25 10:36:24;;;;;;;12.33;9.55;;;;;;;12.40;85.67;99857.22;1734608;82;21189;-82
2023/03/25 10:39:32;;;;;;;15.18;9.78;;;;;;;12.34;85.63;99845.69;1735968;82;21198;-82
2023/03/25 10:42:46;;;;;;;19.75;11.73;;;;;;;12.27;84.96;99839.28;1735207;82;21245;-82
2023/03/25 10:45:53;;;;;;;21.17;11.63;;;;;;;12.24;85.58;99835.59;1735890;82;21197;-82
2023/03/25 10:48:59;;;;;;;19.20;10.88;;;;;;;12.19;85.83;99837.55;1734406;82;21205;-82
2023/03/25 10:52:08;;;;;;;18.67;11.18;;;;;;;12.27;86.33;99825.58;1735601;82;21225;-82
2023/03/25 10:55:16;;;;;;;16.07;9.70;;;;;;;12.35;86.84;99811.72;1734564;82;21192;-82
2023/03/25 10:58:23;;;;;;;18.60;11.43;;;;;;;12.46;86.43;99816.64;1713442;82;21312;-82
2023/03/25 11:01:35;;;;;;;20.77;11.65;;;;;;;12.53;85.36;99811.22;1736025;82;21197;-82
2023/03/25 11:04:44;;;;;;;16.17;11.65;;;;;;;12.57;85.82;99815.78;1734597;82;21913;-82
2023/03/25 11:08:04;;;;;;;18.00;11.35;;;;;;;12.74;84.84;99811.64;1735942;82;21194;-82
2023/03/25 11:11:12;;;;;;;19.37;12.75;;;;;;;12.67;84.75;99804.77;1735988;82;21201;-82
2023/03/25 11:14:19;;;;;;;21.85;12.60;;;;;;;12.79;84.94;99794.89;1731971;82;21224;-82
2023/03/25 11:17:25;;;;;;;25.85;16.95;;;;;;;12.95;84.47;99790.98;1726017;83;21194;-82
2023/03/25 11:20:35;;;;;;;18.42;12.78;;;;;;;13.01;84.60;99792.05;1710360;83;21198;-82
2023/03/25 11:23:43;;;;;;;21.07;14.58;;;;;;;13.26;83.83;99784.98;1709457;83;21253;-82
2023/03/25 11:26:51;;;;;;;20.95;13.80;;;;;;;13.45;83.05;99781.97;1726022;83;21186;-82
2023/03/25 11:30:10;;;;;;;23.10;15.05;;;;;;;13.66;81.94;99773.25;1709179;83;21252;-82
2023/03/25 11:33:21;;;;;;;20.02;12.20;;;;;;;13.70;81.11;99767.13;1725364;83;21241;-82
2023/03/25 11:36:38;;;;;;;22.65;13.55;;;;;;;13.54;80.53;99764.77;1710425;83;21224;-82
2023/03/25 11:39:47;;;;;;;20.68;12.13;;;;;;;13.52;81.47;99762.23;1726086;83;21800;-82
2023/03/25 11:43:03;;;;;;;24.40;13.65;;;;;;;13.76;80.71;99758.56;1725790;83;21367;-82
2023/03/25 11:46:24;;;;;;;21.62;13.45;;;;;;;13.92;79.33;99759.51;1726120;83;21206;-82
2023/03/25 11:49:34;;;;;;;16.82;12.23;;;;;;;14.00;78.53;99755.71;1725320;83;21780;-82
2023/03/25 11:52:52;;;;;;;28.15;13.78;;;;;;;13.88;78.59;99751.39;1709230;83;21210;-82
2023/03/25 11:56:01;;;;;;;18.92;12.90;;;;;;;13.95;78.39;99750.84;1726195;83;21567;-82
2023/03/25 11:59:08;;;;;;;25.88;14.10;;;;;;;14.01;78.28;99740.90;1724631;83;21201;-82
2023/03/25 12:02:39;;;;;;;23.45;13.35;;;;;;;14.02;77.71;99735.21;1726167;83;21837;-82
2023/03/25 12:05:45;;;;;;;21.65;13.85;;;;;;;13.99;78.46;99726.00;1724631;83;21230;-82
2023/03/25 12:09:07;;;;;;;29.95;13.93;;;;;;;14.10;77.65;99712.66;1724723;82;21272;-82
2023/03/25 12:12:45;;;;;;;21.13;12.17;;;;;;;13.97;78.21;99717.63;1726512;83;21174;-82
2023/03/25 12:16:15;;;;;;;26.27;13.32;;;;;;;14.02;77.12;99721.96;1736447;82;21842;-82
2023/03/25 12:19:42;;;;;;;21.23;12.28;;;;;;;13.99;76.51;99721.03;1746151;82;21203;-82
2023/03/25 12:23:27;;;;;;;29.12;13.50;;;;;;;13.89;76.84;99721.47;1746594;82;21192;-82
2023/03/25 12:27:03;;;;;;;19.15;11.63;;;;;;;13.86;77.04;99716.38;1746761;82;21176;-82
2023/03/25 12:30:40;;;;;;;26.82;17.25;;;;;;;13.89;77.93;99703.59;1745426;82;21207;-82
2023/03/25 12:33:57;;;;;;;32.73;12.03;;;;;;;13.96;78.44;99706.33;1682706;85;21236;-82
2023/03/25 12:37:39;;;;;;;19.87;12.37;;;;;;;13.89;78.23;99700.84;1698728;84;22465;-82
2023/03/25 12:41:08;;;;;;;21.07;12.47;;;;;;;13.81;78.67;99692.80;1698494;84;21513;-83
2023/03/25 12:44:52;;;;;;;19.98;14.05;;;;;;;13.90;78.45;99691.53;1699105;84;21752;-82
2023/03/25 12:48:06;;;;;;;21.48;12.85;;;;;;;13.94;78.08;99688.68;1699786;84;21197;-82
2023/03/25 12:51:18;;;;;;;18.48;12.13;;;;;;;13.78;78.93;99686.34;1699467;84;21213;-82
2023/03/25 12:54:49;;;;;;;17.55;12.00;;;;;;;13.83;79.42;99688.46;1698984;84;21237;-82
2023/03/25 12:58:32;;;;;;;16.75;10.20;;;;;;;13.73;79.64;99684.77;1698563;84;21511;-82
2023/03/25 13:01:59;;;;;;;20.70;12.13;;;;;;;13.85;80.24;99680.33;1699809;84;21178;-82
2023/03/25 13:05:29;;;;;;;18.50;11.28;;;;;;;13.96;79.55;99674.17;1698804;84;21827;-82
2023/03/25 13:08:46;;;;;;;20.88;11.10;;;;;;;13.95;78.77;99679.37;1698698;84;21249;-83
2023/03/25 13:11:58;;;;;;;23.70;12.88;;;;;;;14.03;78.25;99673.66;1699814;84;21279;-82
2023/03/25 13:15:30;;;;;;;19.67;11.63;;;;;;;14.14;78.23;99674.05;1698424;84;21221;-82
2023/03/25 13:18:57;;;;;;;21.85;11.35;;;;;;;14.08;78.58;99667.51;1699863;84;21259;-82
2023/03/25 13:22:10;;;;;;;16.67;10.82;;;;;;;14.16;78.50;99662.29;1699675;84;21213;-82
2023/03/25 13:25:23;;;;;;;17.00;11.38;;;;;;;14.17;78.53;99654.38;1698819;84;21197;-82
2023/03/25 13:28:37;;;;;;;20.15;12.35;;;;;;;14.21;77.99;99650.11;1658551;83;21543;-82
2023/03/25 13:31:46;;;;;;;20.57;11.50;;;;;;;14.22;77.68;99647.70;1698453;84;21764;-82
2023/03/25 13:34:59;;;;;;;20.40;11.95;;;;;;;14.23;77.82;99642.50;1699018;84;21293;-83
2023/03/25 13:38:10;;;;;;;22.93;13.32;;;;;;;14.14;77.74;99630.05;1698607;84;21220;-82
2023/03/25 13:41:30;;;;;;;18.95;11.18;;;;;;;14.24;78.07;99628.52;1699723;84;21741;-82
2023/03/25 13:44:45;;;;;;;18.35;11.57;;;;;;;14.33;78.36;99621.72;1699245;84;21205;-82
2023/03/25 13:47:54;;;;;;;18.30;11.95;;;;;;;14.45;78.20;99623.28;1698478;84;21205;-82
2023/03/25 13:51:02;;;;;;;23.42;12.13;;;;;;;14.45;77.60;99615.02;1699284;84;21234;-82
2023/03/25 13:54:28;;;;;;;22.80;12.68;;;;;;;14.48;77.35;99610.47;1699759;84;21277;-82
2023/03/25 13:57:43;;;;;;;21.65;11.20;;;;;;;14.59;76.84;99614.47;1700042;84;21525;-82
2023/03/25 14:01:19;;;;;;;31.57;12.23;;;;;;;14.35;76.69;99609.15;1698476;84;21209;-83
2023/03/25 14:05:12;;;;;;;21.15;11.38;;;;;;;14.28;77.33;99612.44;1699526;84;21241;-83
2023/03/25 14:08:39;;;;;;;24.27;11.97;;;;;;;14.25;77.53;99608.73;1698436;84;21210;-83
2023/03/25 14:11:53;;;;;;;19.05;11.33;;;;;;;14.13;77.48;99604.98;1699780;84;21824;-82
2023/03/25 14:14:55;;;;;;;19.55;12.93;;;;;;;14.13;77.20;99597.58;1699276;84;21221;-82
2023/03/25 14:18:02;;;;;;;25.27;13.05;;;;;;;13.96;78.19;99595.82;1694934;84;21237;-83
2023/03/25 14:21:29;;;;;;;26.40;13.38;;;;;;;13.90;78.78;99596.69;1741726;82;21996;-82
2023/03/25 14:24:47;;;;;;;24.57;12.30;;;;;;;13.74;79.66;99595.78;1742075;82;22447;-82
2023/03/25 14:27:56;;;;;;;42.30;16.65;;;;;;;13.79;79.73;99591.33;1742255;82;21755;-82
2023/03/25 14:31:22;;;;;;;28.40;16.30;;;;;;;13.72;79.79;99593.77;1740564;82;21241;-82
2023/03/25 14:34:33;;;;;;;31.77;14.47;;;;;;;13.60;80.20;99588.09;1739645;82;21728;-82
2023/03/25 14:37:38;;;;;;;29.45;15.83;;;;;;;13.51;80.64;99583.88;1740400;82;21217;-82
2023/03/25 14:40:57;;;;;;;28.95;15.60;;;;;;;13.51;80.64;99583.88;1741743;82;21181;-82
2023/03/25 14:44:03;;;;;;;27.80;16.10;;;;;;;13.49;80.43;99579.11;1741471;82;21233;-82
2023/03/25 14:47:24;;;;;;;28.83;15.93;;;;;;;13.30;81.04;99579.43;1732010;82;21197;-82
2023/03/25 14:50:39;;;;;;;29.27;15.98;;;;;;;13.23;81.20;99571.73;1740284;82;21173;-82
2023/03/25 14:53:44;;;;;;;28.73;16.65;;;;;;;13.20;81.04;99581.73;1744147;81;21213;-82
2023/03/25 14:57:03;;;;;;;33.55;16.23;;;;;;;13.08;81.79;99569.67;1755690;81;21192;-82